sensor_id;sensor_type;location;lat;lon;timestamp;temperature;humidity
74869;DHT22;63419;42.262;12.210;2023-04-06T00:00:48;2.50;99.90
74869;DHT22;63419;42.262;12.210;2023-04-06T00:03:28;2.40;99.90
74869;DHT22;63419;42.262;12.210;2023-04-06T00:05:55;2.00;99.90
74869;DHT22;63419;42.262;12.210;2023-04-06T00:08:23;1.10;99.90
74869;DHT22;63419;42.262;12.210;2023-04-06T00:10:50;1.10;99.90
74869;DHT22;63419;42.262;12.210;2023-04-06T00:13:30;1.10;99.90
74869;DHT22;63419;42.262;12.210;2023-04-06T00:15:58;1.10;99.90
74869;DHT22;63419;42.262;12.210;2023-04-06T00:18:28;1.20;99.90
74869;DHT22;63419;42.262;12.210;2023-04-06T00:20:58;1.30;99.90
74869;DHT22;63419;42.262;12.210;2023-04-06T00:23:30;1.20;99.90
74869;DHT22;63419;42.262;12.210;2023-04-06T00:25:58;1.10;99.90
74869;DHT22;63419;42.262;12.210;2023-04-06T00:28:25;1.10;99.90
74869;DHT22;63419;42.262;12.210;2023-04-06T00:30:58;1.10;99.90
74869;DHT22;63419;42.262;12.210;2023-04-06T00:33:29;1.30;99.90
74869;DHT22;63419;42.262;12.210;2023-04-06T00:35:57;1.30;99.90
74869;DHT22;63419;42.262;12.210;2023-04-06T00:38:28;1.40;99.90
74869;DHT22;63419;42.262;12.210;2023-04-06T00:41:03;1.40;99.90
74869;DHT22;63419;42.262;12.210;2023-04-06T00:43:33;1.50;99.90
74869;DHT22;63419;42.262;12.210;2023-04-06T00:46:02;1.60;99.90
74869;DHT22;63419;42.262;12.210;2023-04-06T00:48:37;1.70;99.90
74869;DHT22;63419;42.262;12.210;2023-04-06T00:51:04;1.70;99.90
74869;DHT22;63419;42.262;12.210;2023-04-06T00:53:32;2.00;99.90
74869;DHT22;63419;42.262;12.210;2023-04-06T00:56:07;2.10;99.90
74869;DHT22;63419;42.262;12.210;2023-04-06T00:58:37;2.20;99.90
74869;DHT22;63419;42.262;12.210;2023-04-06T01:01:09;2.40;99.90
74869;DHT22;63419;42.262;12.210;2023-04-06T01:03:51;2.40;99.90
74869;DHT22;63419;42.262;12.210;2023-04-06T01:06:19;2.60;99.90
74869;DHT22;63419;42.262;12.210;2023-04-06T01:08:46;2.60;99.90
74869;DHT22;63419;42.262;12.210;2023-04-06T01:11:26;2.70;99.90
74869;DHT22;63419;42.262;12.210;2023-04-06T01:13:55;2.60;99.90
74869;DHT22;63419;42.262;12.210;2023-04-06T01:16:29;1.80;99.90
74869;DHT22;63419;42.262;12.210;2023-04-06T01:18:58;1.10;99.90
74869;DHT22;63419;42.262;12.210;2023-04-06T01:21:29;0.80;99.90
74869;DHT22;63419;42.262;12.210;2023-04-06T01:23:57;0.70;99.90
74869;DHT22;63419;42.262;12.210;2023-04-06T01:26:24;0.80;99.90
74869;DHT22;63419;42.262;12.210;2023-04-06T01:29:03;0.80;99.90
74869;DHT22;63419;42.262;12.210;2023-04-06T01:31:30;0.90;99.90
74869;DHT22;63419;42.262;12.210;2023-04-06T01:34:03;1.10;99.90
74869;DHT22;63419;42.262;12.210;2023-04-06T01:36:41;1.40;99.90
74869;DHT22;63419;42.262;12.210;2023-04-06T01:39:09;1.60;99.90
74869;DHT22;63419;42.262;12.210;2023-04-06T01:41:39;1.80;99.90
74869;DHT22;63419;42.262;12.210;2023-04-06T01:44:11;2.00;99.90
74869;DHT22;63419;42.262;12.210;2023-04-06T01:46:43;2.10;99.90
74869;DHT22;63419;42.262;12.210;2023-04-06T01:49:11;2.30;99.90
74869;DHT22;63419;42.262;12.210;2023-04-06T01:51:41;2.50;99.90
74869;DHT22;63419;42.262;12.210;2023-04-06T01:54:08;2.50;99.90
74869;DHT22;63419;42.262;12.210;2023-04-06T01:56:42;2.50;99.90
74869;DHT22;63419;42.262;12.210;2023-04-06T01:59:12;2.60;99.90
74869;DHT22;63419;42.262;12.210;2023-04-06T02:01:44;2.60;99.90
74869;DHT22;63419;42.262;12.210;2023-04-06T02:04:25;2.80;99.90
74869;DHT22;63419;42.262;12.210;2023-04-06T02:06:55;2.90;99.90
74869;DHT22;63419;42.262;12.210;2023-04-06T02:09:29;3.00;99.90
74869;DHT22;63419;42.262;12.210;2023-04-06T02:11:57;3.00;99.90
74869;DHT22;63419;42.262;12.210;2023-04-06T02:14:27;3.00;99.90
74869;DHT22;63419;42.262;12.210;2023-04-06T02:16:56;3.10;99.90
74869;DHT22;63419;42.262;12.210;2023-04-06T02:19:42;3.10;99.90
74869;DHT22;63419;42.262;12.210;2023-04-06T02:22:14;3.20;99.90
74869;DHT22;63419;42.262;12.210;2023-04-06T02:24:44;3.10;99.90
74869;DHT22;63419;42.262;12.210;2023-04-06T02:27:16;3.00;99.90
74869;DHT22;63419;42.262;12.210;2023-04-06T02:29:46;3.00;99.90
74869;DHT22;63419;42.262;12.210;2023-04-06T02:32:16;3.00;99.90
74869;DHT22;63419;42.262;12.210;2023-04-06T02:34:46;3.10;99.90
74869;DHT22;63419;42.262;12.210;2023-04-06T02:37:16;3.10;99.90
74869;DHT22;63419;42.262;12.210;2023-04-06T02:39:44;3.30;99.90
74869;DHT22;63419;42.262;12.210;2023-04-06T02:42:14;3.30;99.90
74869;DHT22;63419;42.262;12.210;2023-04-06T02:44:44;3.40;99.90
74869;DHT22;63419;42.262;12.210;2023-04-06T02:47:16;3.40;99.90
74869;DHT22;63419;42.262;12.210;2023-04-06T02:49:47;3.50;99.90
74869;DHT22;63419;42.262;12.210;2023-04-06T02:52:14;3.40;99.90
74869;DHT22;63419;42.262;12.210;2023-04-06T02:54:42;3.40;99.90
74869;DHT22;63419;42.262;12.210;2023-04-06T02:57:11;3.40;99.90
74869;DHT22;63419;42.262;12.210;2023-04-06T02:59:41;3.50;99.90
74869;DHT22;63419;42.262;12.210;2023-04-06T03:02:22;3.50;99.90
74869;DHT22;63419;42.262;12.210;2023-04-06T03:04:50;3.50;99.90
74869;DHT22;63419;42.262;12.210;2023-04-06T03:07:21;3.50;99.90
74869;DHT22;63419;42.262;12.210;2023-04-06T03:09:49;3.50;99.90
74869;DHT22;63419;42.262;12.210;2023-04-06T03:12:22;3.50;99.90
74869;DHT22;63419;42.262;12.210;2023-04-06T03:14:49;3.50;99.90
74869;DHT22;63419;42.262;12.210;2023-04-06T03:17:19;3.50;99.90
74869;DHT22;63419;42.262;12.210;2023-04-06T03:19:50;3.40;99.90
74869;DHT22;63419;42.262;12.210;2023-04-06T03:22:17;3.40;99.90
74869;DHT22;63419;42.262;12.210;2023-04-06T03:25:05;3.40;99.90
74869;DHT22;63419;42.262;12.210;2023-04-06T03:27:34;3.40;99.90
74869;DHT22;63419;42.262;12.210;2023-04-06T03:30:08;3.30;99.90
74869;DHT22;63419;42.262;12.210;2023-04-06T03:32:36;3.30;99.90
74869;DHT22;63419;42.262;12.210;2023-04-06T03:35:04;3.30;99.90
74869;DHT22;63419;42.262;12.210;2023-04-06T03:37:32;3.30;99.90
74869;DHT22;63419;42.262;12.210;2023-04-06T03:40:00;3.30;99.90
74869;DHT22;63419;42.262;12.210;2023-04-06T03:42:30;3.30;99.90
74869;DHT22;63419;42.262;12.210;2023-04-06T03:44:59;3.30;99.90
74869;DHT22;63419;42.262;12.210;2023-04-06T03:47:32;3.30;99.90
74869;DHT22;63419;42.262;12.210;2023-04-06T03:50:00;3.10;99.90
74869;DHT22;63419;42.262;12.210;2023-04-06T03:52:29;3.10;99.90
74869;DHT22;63419;42.262;12.210;2023-04-06T03:55:07;3.10;99.90
74869;DHT22;63419;42.262;12.210;2023-04-06T03:57:39;3.10;99.90
74869;DHT22;63419;42.262;12.210;2023-04-06T04:00:06;3.10;99.90
74869;DHT22;63419;42.262;12.210;2023-04-06T04:02:54;3.10;99.90
74869;DHT22;63419;42.262;12.210;2023-04-06T04:05:22;3.00;99.90
74869;DHT22;63419;42.262;12.210;2023-04-06T04:07:54;3.10;99.90
74869;DHT22;63419;42.262;12.210;2023-04-06T04:10:28;3.00;99.90
74869;DHT22;63419;42.262;12.210;2023-04-06T04:12:55;3.00;99.90
74869;DHT22;63419;42.262;12.210;2023-04-06T04:15:23;3.00;99.90
74869;DHT22;63419;42.262;12.210;2023-04-06T04:17:56;2.90;99.90
74869;DHT22;63419;42.262;12.210;2023-04-06T04:20:31;2.80;99.90
74869;DHT22;63419;42.262;12.210;2023-04-06T04:23:02;2.80;99.90
74869;DHT22;63419;42.262;12.210;2023-04-06T04:25:32;2.80;99.90
74869;DHT22;63419;42.262;12.210;2023-04-06T04:27:59;2.80;99.90
74869;DHT22;63419;42.262;12.210;2023-04-06T04:30:30;2.80;99.90
74869;DHT22;63419;42.262;12.210;2023-04-06T04:33:00;2.90;99.90
74869;DHT22;63419;42.262;12.210;2023-04-06T04:35:33;2.90;99.90
74869;DHT22;63419;42.262;12.210;2023-04-06T04:38:01;2.90;99.90
74869;DHT22;63419;42.262;12.210;2023-04-06T04:40:28;2.90;99.90
74869;DHT22;63419;42.262;12.210;2023-04-06T04:42:55;2.90;99.90
74869;DHT22;63419;42.262;12.210;2023-04-06T04:45:25;2.80;99.90
74869;DHT22;63419;42.262;12.210;2023-04-06T04:47:52;2.80;99.90
74869;DHT22;63419;42.262;12.210;2023-04-06T04:50:24;2.80;99.90
74869;DHT22;63419;42.262;12.210;2023-04-06T04:52:58;2.80;99.90
74869;DHT22;63419;42.262;12.210;2023-04-06T04:55:26;2.80;99.90
74869;DHT22;63419;42.262;12.210;2023-04-06T04:57:57;2.80;99.90
74869;DHT22;63419;42.262;12.210;2023-04-06T05:00:26;2.70;99.90
74869;DHT22;63419;42.262;12.210;2023-04-06T05:02:54;2.80;99.90
74869;DHT22;63419;42.262;12.210;2023-04-06T05:05:28;2.80;99.90
74869;DHT22;63419;42.262;12.210;2023-04-06T05:08:02;2.80;99.90
74869;DHT22;63419;42.262;12.210;2023-04-06T05:10:32;2.80;99.90
74869;DHT22;63419;42.262;12.210;2023-04-06T05:13:08;2.80;99.90
74869;DHT22;63419;42.262;12.210;2023-04-06T05:15:37;2.90;99.90
74869;DHT22;63419;42.262;12.210;2023-04-06T05:18:11;2.90;99.90
74869;DHT22;63419;42.262;12.210;2023-04-06T05:20:45;2.90;99.90
74869;DHT22;63419;42.262;12.210;2023-04-06T05:23:13;2.90;99.90
74869;DHT22;63419;42.262;12.210;2023-04-06T05:25:42;3.00;99.90
74869;DHT22;63419;42.262;12.210;2023-04-06T05:28:13;3.10;99.90
74869;DHT22;63419;42.262;12.210;2023-04-06T05:30:48;3.00;99.90
74869;DHT22;63419;42.262;12.210;2023-04-06T05:33:19;3.10;99.90
74869;DHT22;63419;42.262;12.210;2023-04-06T05:35:48;3.10;99.90
74869;DHT22;63419;42.262;12.210;2023-04-06T05:38:25;3.10;99.90
74869;DHT22;63419;42.262;12.210;2023-04-06T05:40:53;3.20;99.90
74869;DHT22;63419;42.262;12.210;2023-04-06T05:43:32;3.30;99.90
74869;DHT22;63419;42.262;12.210;2023-04-06T05:45:59;3.30;99.90
74869;DHT22;63419;42.262;12.210;2023-04-06T05:48:27;3.40;99.90
74869;DHT22;63419;42.262;12.210;2023-04-06T05:50:57;3.50;99.90
74869;DHT22;63419;42.262;12.210;2023-04-06T05:53:31;3.60;99.90
74869;DHT22;63419;42.262;12.210;2023-04-06T05:56:02;3.70;99.90
74869;DHT22;63419;42.262;12.210;2023-04-06T05:58:35;3.70;99.90
74869;DHT22;63419;42.262;12.210;2023-04-06T06:01:03;3.80;99.90
74869;DHT22;63419;42.262;12.210;2023-04-06T06:03:32;3.80;99.90
74869;DHT22;63419;42.262;12.210;2023-04-06T06:06:04;3.90;99.90
74869;DHT22;63419;42.262;12.210;2023-04-06T06:08:34;3.90;99.90
74869;DHT22;63419;42.262;12.210;2023-04-06T06:11:02;4.00;99.90
74869;DHT22;63419;42.262;12.210;2023-04-06T06:13:30;4.10;99.90
74869;DHT22;63419;42.262;12.210;2023-04-06T06:16:01;4.20;99.90
74869;DHT22;63419;42.262;12.210;2023-04-06T06:18:31;4.30;99.90
74869;DHT22;63419;42.262;12.210;2023-04-06T06:21:04;4.30;99.90
74869;DHT22;63419;42.262;12.210;2023-04-06T06:23:33;4.40;99.90
74869;DHT22;63419;42.262;12.210;2023-04-06T06:26:00;4.40;99.90
74869;DHT22;63419;42.262;12.210;2023-04-06T06:28:28;4.50;99.90
74869;DHT22;63419;42.262;12.210;2023-04-06T06:31:00;4.60;99.90
74869;DHT22;63419;42.262;12.210;2023-04-06T06:33:28;4.60;99.90
74869;DHT22;63419;42.262;12.210;2023-04-06T06:35:56;4.70;99.90
74869;DHT22;63419;42.262;12.210;2023-04-06T06:38:27;4.70;99.90
74869;DHT22;63419;42.262;12.210;2023-04-06T06:40:58;4.80;99.90
74869;DHT22;63419;42.262;12.210;2023-04-06T06:43:27;4.90;99.90
74869;DHT22;63419;42.262;12.210;2023-04-06T06:45:55;5.00;99.90
74869;DHT22;63419;42.262;12.210;2023-04-06T06:48:34;5.10;99.90
74869;DHT22;63419;42.262;12.210;2023-04-06T06:51:18;5.10;99.90
74869;DHT22;63419;42.262;12.210;2023-04-06T06:53:47;5.20;99.90
74869;DHT22;63419;42.262;12.210;2023-04-06T06:56:21;5.20;99.90
74869;DHT22;63419;42.262;12.210;2023-04-06T06:58:50;5.30;99.90
74869;DHT22;63419;42.262;12.210;2023-04-06T07:01:18;5.40;99.90
74869;DHT22;63419;42.262;12.210;2023-04-06T07:03:46;5.30;99.90
74869;DHT22;63419;42.262;12.210;2023-04-06T07:06:15;5.40;99.90
74869;DHT22;63419;42.262;12.210;2023-04-06T07:08:43;5.50;99.90
74869;DHT22;63419;42.262;12.210;2023-04-06T07:11:15;5.60;99.90
74869;DHT22;63419;42.262;12.210;2023-04-06T07:13:48;5.60;99.90
74869;DHT22;63419;42.262;12.210;2023-04-06T07:16:15;5.70;99.90
74869;DHT22;63419;42.262;12.210;2023-04-06T07:18:48;5.80;99.90
74869;DHT22;63419;42.262;12.210;2023-04-06T07:21:18;5.80;99.90
74869;DHT22;63419;42.262;12.210;2023-04-06T07:23:53;6.00;99.90
74869;DHT22;63419;42.262;12.210;2023-04-06T07:26:26;6.00;99.90
74869;DHT22;63419;42.262;12.210;2023-04-06T07:28:54;6.10;99.90
74869;DHT22;63419;42.262;12.210;2023-04-06T07:31:23;6.20;99.90
74869;DHT22;63419;42.262;12.210;2023-04-06T07:33:55;6.40;99.90
74869;DHT22;63419;42.262;12.210;2023-04-06T07:36:26;6.40;99.90
74869;DHT22;63419;42.262;12.210;2023-04-06T07:38:54;6.50;99.90
74869;DHT22;63419;42.262;12.210;2023-04-06T07:41:21;6.60;99.90
74869;DHT22;63419;42.262;12.210;2023-04-06T07:43:54;6.60;99.90
74869;DHT22;63419;42.262;12.210;2023-04-06T07:46:25;6.60;99.90
74869;DHT22;63419;42.262;12.210;2023-04-06T07:48:53;6.70;99.90
74869;DHT22;63419;42.262;12.210;2023-04-06T07:51:23;6.80;99.90
74869;DHT22;63419;42.262;12.210;2023-04-06T07:53:53;7.00;99.90
74869;DHT22;63419;42.262;12.210;2023-04-06T07:56:24;7.10;99.90
74869;DHT22;63419;42.262;12.210;2023-04-06T07:59:01;7.10;99.90
74869;DHT22;63419;42.262;12.210;2023-04-06T08:01:35;7.10;99.90
74869;DHT22;63419;42.262;12.210;2023-04-06T08:04:03;7.20;99.90
74869;DHT22;63419;42.262;12.210;2023-04-06T08:06:31;7.10;99.90
74869;DHT22;63419;42.262;12.210;2023-04-06T08:09:01;7.20;99.90
74869;DHT22;63419;42.262;12.210;2023-04-06T08:11:32;7.30;99.90
74869;DHT22;63419;42.262;12.210;2023-04-06T08:14:01;7.40;99.90
74869;DHT22;63419;42.262;12.210;2023-04-06T08:16:29;7.50;99.90
74869;DHT22;63419;42.262;12.210;2023-04-06T08:18:59;7.70;99.90
74869;DHT22;63419;42.262;12.210;2023-04-06T08:21:27;7.80;99.90
74869;DHT22;63419;42.262;12.210;2023-04-06T08:23:57;7.90;99.90
74869;DHT22;63419;42.262;12.210;2023-04-06T08:26:29;8.00;99.90
74869;DHT22;63419;42.262;12.210;2023-04-06T08:28:59;8.00;99.90
74869;DHT22;63419;42.262;12.210;2023-04-06T08:31:30;8.00;99.90
74869;DHT22;63419;42.262;12.210;2023-04-06T08:33:58;8.10;99.90
74869;DHT22;63419;42.262;12.210;2023-04-06T08:36:30;8.20;99.90
74869;DHT22;63419;42.262;12.210;2023-04-06T08:39:03;8.40;99.90
74869;DHT22;63419;42.262;12.210;2023-04-06T08:41:34;8.50;99.90
74869;DHT22;63419;42.262;12.210;2023-04-06T08:44:11;8.60;99.90
74869;DHT22;63419;42.262;12.210;2023-04-06T08:46:39;8.60;99.90
74869;DHT22;63419;42.262;12.210;2023-04-06T08:49:11;8.70;99.90
74869;DHT22;63419;42.262;12.210;2023-04-06T08:51:42;8.80;99.90
74869;DHT22;63419;42.262;12.210;2023-04-06T08:54:13;8.80;99.50
74869;DHT22;63419;42.262;12.210;2023-04-06T08:56:47;9.10;99.40
74869;DHT22;63419;42.262;12.210;2023-04-06T08:59:19;9.20;99.30
74869;DHT22;63419;42.262;12.210;2023-04-06T09:01:47;9.30;99.00
74869;DHT22;63419;42.262;12.210;2023-04-06T09:04:15;9.40;98.50
74869;DHT22;63419;42.262;12.210;2023-04-06T09:06:46;9.60;98.20
74869;DHT22;63419;42.262;12.210;2023-04-06T09:09:14;9.70;98.60
74869;DHT22;63419;42.262;12.210;2023-04-06T09:11:50;9.60;96.60
74869;DHT22;63419;42.262;12.210;2023-04-06T09:14:38;9.70;96.70
74869;DHT22;63419;42.262;12.210;2023-04-06T09:17:20;9.90;97.50
74869;DHT22;63419;42.262;12.210;2023-04-06T09:19:53;9.90;97.00
74869;DHT22;63419;42.262;12.210;2023-04-06T09:22:25;10.00;95.80
74869;DHT22;63419;42.262;12.210;2023-04-06T09:25:02;10.10;96.40
74869;DHT22;63419;42.262;12.210;2023-04-06T09:27:35;10.20;96.30
74869;DHT22;63419;42.262;12.210;2023-04-06T09:30:08;10.40;96.80
74869;DHT22;63419;42.262;12.210;2023-04-06T09:32:50;10.50;96.50
74869;DHT22;63419;42.262;12.210;2023-04-06T09:35:24;10.70;95.70
74869;DHT22;63419;42.262;12.210;2023-04-06T09:37:56;10.80;96.30
74869;DHT22;63419;42.262;12.210;2023-04-06T09:40:25;10.90;95.20
74869;DHT22;63419;42.262;12.210;2023-04-06T09:42:52;11.00;95.10
74869;DHT22;63419;42.262;12.210;2023-04-06T09:45:26;11.00;95.60
74869;DHT22;63419;42.262;12.210;2023-04-06T09:47:56;10.90;95.10
74869;DHT22;63419;42.262;12.210;2023-04-06T09:50:31;11.10;95.70
74869;DHT22;63419;42.262;12.210;2023-04-06T09:53:00;11.30;95.10
74869;DHT22;63419;42.262;12.210;2023-04-06T09:58:15;11.40;95.30
74869;DHT22;63419;42.262;12.210;2023-04-06T10:00:56;11.60;95.40
74869;DHT22;63419;42.262;12.210;2023-04-06T10:06:27;12.20;95.50
74869;DHT22;63419;42.262;12.210;2023-04-06T10:09:21;12.50;95.10
74869;DHT22;63419;42.262;12.210;2023-04-06T10:12:08;12.70;95.50
74869;DHT22;63419;42.262;12.210;2023-04-06T10:14:39;13.10;94.10
74869;DHT22;63419;42.262;12.210;2023-04-06T10:17:08;13.20;94.30
74869;DHT22;63419;42.262;12.210;2023-04-06T10:19:59;13.20;93.70
74869;DHT22;63419;42.262;12.210;2023-04-06T10:22:43;13.50;93.50
74869;DHT22;63419;42.262;12.210;2023-04-06T10:25:32;13.50;92.40
74869;DHT22;63419;42.262;12.210;2023-04-06T10:28:08;13.90;93.70
74869;DHT22;63419;42.262;12.210;2023-04-06T10:30:43;14.10;92.70
74869;DHT22;63419;42.262;12.210;2023-04-06T10:33:18;14.70;92.10
74869;DHT22;63419;42.262;12.210;2023-04-06T10:35:53;14.60;92.50
74869;DHT22;63419;42.262;12.210;2023-04-06T10:38:34;15.00;91.90
74869;DHT22;63419;42.262;12.210;2023-04-06T10:41:12;14.80;92.10
74869;DHT22;63419;42.262;12.210;2023-04-06T10:43:45;14.60;90.90
74869;DHT22;63419;42.262;12.210;2023-04-06T10:46:29;14.80;90.60
74869;DHT22;63419;42.262;12.210;2023-04-06T10:49:11;15.50;90.20
74869;DHT22;63419;42.262;12.210;2023-04-06T10:51:42;16.10;87.80
74869;DHT22;63419;42.262;12.210;2023-04-06T10:54:12;16.50;88.60
74869;DHT22;63419;42.262;12.210;2023-04-06T10:56:42;16.00;88.00
74869;DHT22;63419;42.262;12.210;2023-04-06T10:59:21;16.40;87.70
74869;DHT22;63419;42.262;12.210;2023-04-06T11:01:55;16.90;84.30
74869;DHT22;63419;42.262;12.210;2023-04-06T11:04:30;16.70;83.90
74869;DHT22;63419;42.262;12.210;2023-04-06T11:07:03;16.50;83.90
74869;DHT22;63419;42.262;12.210;2023-04-06T11:09:36;16.60;83.00
74869;DHT22;63419;42.262;12.210;2023-04-06T11:12:09;16.70;85.40
74869;DHT22;63419;42.262;12.210;2023-04-06T11:15:03;17.10;83.90
74869;DHT22;63419;42.262;12.210;2023-04-06T11:17:35;17.60;85.20
74869;DHT22;63419;42.262;12.210;2023-04-06T11:20:10;17.90;89.10
74869;DHT22;63419;42.262;12.210;2023-04-06T11:23:08;17.70;84.70
74869;DHT22;63419;42.262;12.210;2023-04-06T11:25:49;18.70;84.20
74869;DHT22;63419;42.262;12.210;2023-04-06T11:28:18;19.00;82.70
74869;DHT22;63419;42.262;12.210;2023-04-06T11:30:50;18.70;81.90
74869;DHT22;63419;42.262;12.210;2023-04-06T11:33:22;18.80;85.30
74869;DHT22;63419;42.262;12.210;2023-04-06T11:35:49;18.20;83.70
74869;DHT22;63419;42.262;12.210;2023-04-06T11:38:19;18.20;83.40
74869;DHT22;63419;42.262;12.210;2023-04-06T11:40:53;18.10;83.40
74869;DHT22;63419;42.262;12.210;2023-04-06T11:43:33;16.30;83.50
74869;DHT22;63419;42.262;12.210;2023-04-06T11:46:05;17.80;81.90
74869;DHT22;63419;42.262;12.210;2023-04-06T11:48:44;17.20;80.00
74869;DHT22;63419;42.262;12.210;2023-04-06T11:51:24;14.80;79.00
74869;DHT22;63419;42.262;12.210;2023-04-06T11:53:56;16.10;83.80
74869;DHT22;63419;42.262;12.210;2023-04-06T11:56:28;17.80;82.40
74869;DHT22;63419;42.262;12.210;2023-04-06T11:58:58;18.60;81.70
74869;DHT22;63419;42.262;12.210;2023-04-06T12:01:26;18.70;78.20
74869;DHT22;63419;42.262;12.210;2023-04-06T12:03:58;18.80;78.50
74869;DHT22;63419;42.262;12.210;2023-04-06T12:06:26;18.90;78.40
74869;DHT22;63419;42.262;12.210;2023-04-06T12:08:59;17.50;80.30
74869;DHT22;63419;42.262;12.210;2023-04-06T12:11:26;17.00;77.70
74869;DHT22;63419;42.262;12.210;2023-04-06T12:13:54;17.00;82.10
74869;DHT22;63419;42.262;12.210;2023-04-06T12:16:31;17.60;79.90
74869;DHT22;63419;42.262;12.210;2023-04-06T12:18:58;17.90;78.10
74869;DHT22;63419;42.262;12.210;2023-04-06T12:21:30;18.90;79.60
74869;DHT22;63419;42.262;12.210;2023-04-06T12:24:00;20.10;76.60
74869;DHT22;63419;42.262;12.210;2023-04-06T12:26:30;19.00;75.40
74869;DHT22;63419;42.262;12.210;2023-04-06T12:28:58;16.80;80.00
74869;DHT22;63419;42.262;12.210;2023-04-06T12:31:40;18.80;79.20
74869;DHT22;63419;42.262;12.210;2023-04-06T12:34:09;20.70;76.70
74869;DHT22;63419;42.262;12.210;2023-04-06T12:36:45;20.40;74.30
74869;DHT22;63419;42.262;12.210;2023-04-06T12:39:19;21.70;73.90
74869;DHT22;63419;42.262;12.210;2023-04-06T12:41:48;23.80;71.90
74869;DHT22;63419;42.262;12.210;2023-04-06T12:44:16;22.40;70.50
74869;DHT22;63419;42.262;12.210;2023-04-06T12:46:44;21.10;68.50
74869;DHT22;63419;42.262;12.210;2023-04-06T12:49:12;21.00;70.00
74869;DHT22;63419;42.262;12.210;2023-04-06T12:51:41;20.90;69.90
74869;DHT22;63419;42.262;12.210;2023-04-06T12:54:11;21.90;68.10
74869;DHT22;63419;42.262;12.210;2023-04-06T12:56:39;21.40;66.40
74869;DHT22;63419;42.262;12.210;2023-04-06T12:59:06;20.20;67.30
74869;DHT22;63419;42.262;12.210;2023-04-06T13:01:34;21.00;70.00
74869;DHT22;63419;42.262;12.210;2023-04-06T13:04:02;20.80;68.00
74869;DHT22;63419;42.262;12.210;2023-04-06T13:06:31;20.80;68.30
74869;DHT22;63419;42.262;12.210;2023-04-06T13:08:58;20.50;64.90
74869;DHT22;63419;42.262;12.210;2023-04-06T13:11:33;19.60;66.80
74869;DHT22;63419;42.262;12.210;2023-04-06T13:14:00;18.90;68.60
74869;DHT22;63419;42.262;12.210;2023-04-06T13:16:30;19.60;70.20
74869;DHT22;63419;42.262;12.210;2023-04-06T13:18:59;21.30;69.10
74869;DHT22;63419;42.262;12.210;2023-04-06T13:21:33;21.80;67.40
74869;DHT22;63419;42.262;12.210;2023-04-06T13:24:03;21.60;67.80
74869;DHT22;63419;42.262;12.210;2023-04-06T13:26:33;20.10;69.10
74869;DHT22;63419;42.262;12.210;2023-04-06T13:29:04;19.90;69.80
74869;DHT22;63419;42.262;12.210;2023-04-06T13:31:38;19.10;67.30
74869;DHT22;63419;42.262;12.210;2023-04-06T13:34:09;19.70;69.10
74869;DHT22;63419;42.262;12.210;2023-04-06T13:36:37;20.60;69.50
74869;DHT22;63419;42.262;12.210;2023-04-06T13:39:05;20.50;66.90
74869;DHT22;63419;42.262;12.210;2023-04-06T13:41:36;18.70;71.30
74869;DHT22;63419;42.262;12.210;2023-04-06T13:44:03;17.50;73.90
74869;DHT22;63419;42.262;12.210;2023-04-06T13:46:32;18.10;74.00
74869;DHT22;63419;42.262;12.210;2023-04-06T13:49:05;16.80;73.30
74869;DHT22;63419;42.262;12.210;2023-04-06T13:51:32;16.80;75.70
74869;DHT22;63419;42.262;12.210;2023-04-06T13:54:00;16.80;72.10
74869;DHT22;63419;42.262;12.210;2023-04-06T13:56:30;16.60;73.30
74869;DHT22;63419;42.262;12.210;2023-04-06T13:59:02;15.60;73.80
74869;DHT22;63419;42.262;12.210;2023-04-06T14:01:32;15.40;73.30
74869;DHT22;63419;42.262;12.210;2023-04-06T14:04:01;17.30;77.00
74869;DHT22;63419;42.262;12.210;2023-04-06T14:06:29;17.70;70.40
74869;DHT22;63419;42.262;12.210;2023-04-06T14:08:58;17.20;72.20
74869;DHT22;63419;42.262;12.210;2023-04-06T14:11:26;16.00;70.60
74869;DHT22;63419;42.262;12.210;2023-04-06T14:13:54;16.30;74.60
74869;DHT22;63419;42.262;12.210;2023-04-06T14:16:24;16.20;73.50
74869;DHT22;63419;42.262;12.210;2023-04-06T14:18:51;16.50;71.20
74869;DHT22;63419;42.262;12.210;2023-04-06T14:21:19;15.60;73.00
74869;DHT22;63419;42.262;12.210;2023-04-06T14:23:48;15.90;75.20
74869;DHT22;63419;42.262;12.210;2023-04-06T14:26:15;15.90;72.40
74869;DHT22;63419;42.262;12.210;2023-04-06T14:28:49;16.50;71.70
74869;DHT22;63419;42.262;12.210;2023-04-06T14:31:17;17.40;68.60
74869;DHT22;63419;42.262;12.210;2023-04-06T14:33:45;17.00;71.40
74869;DHT22;63419;42.262;12.210;2023-04-06T14:36:24;18.20;73.00
74869;DHT22;63419;42.262;12.210;2023-04-06T14:38:57;19.10;69.40
74869;DHT22;63419;42.262;12.210;2023-04-06T14:41:24;19.60;69.40
74869;DHT22;63419;42.262;12.210;2023-04-06T14:43:54;17.90;68.40
74869;DHT22;63419;42.262;12.210;2023-04-06T14:46:22;16.00;73.10
74869;DHT22;63419;42.262;12.210;2023-04-06T14:48:57;15.30;71.40
74869;DHT22;63419;42.262;12.210;2023-04-06T14:51:25;14.70;72.70
74869;DHT22;63419;42.262;12.210;2023-04-06T14:53:55;15.40;73.70
74869;DHT22;63419;42.262;12.210;2023-04-06T14:56:47;17.10;72.70
74869;DHT22;63419;42.262;12.210;2023-04-06T14:59:26;16.20;73.30
74869;DHT22;63419;42.262;12.210;2023-04-06T15:01:53;15.80;73.20
74869;DHT22;63419;42.262;12.210;2023-04-06T15:04:25;16.20;74.10
74869;DHT22;63419;42.262;12.210;2023-04-06T15:06:55;16.30;74.80
74869;DHT22;63419;42.262;12.210;2023-04-06T15:09:27;15.70;76.90
74869;DHT22;63419;42.262;12.210;2023-04-06T15:11:54;15.80;77.00
74869;DHT22;63419;42.262;12.210;2023-04-06T15:14:28;16.30;73.90
74869;DHT22;63419;42.262;12.210;2023-04-06T15:17:03;17.50;73.70
74869;DHT22;63419;42.262;12.210;2023-04-06T15:19:36;18.20;70.90
74869;DHT22;63419;42.262;12.210;2023-04-06T15:22:13;17.10;72.70
74869;DHT22;63419;42.262;12.210;2023-04-06T15:24:40;15.90;74.80
74869;DHT22;63419;42.262;12.210;2023-04-06T15:27:07;16.90;75.00
74869;DHT22;63419;42.262;12.210;2023-04-06T15:29:34;16.10;74.40
74869;DHT22;63419;42.262;12.210;2023-04-06T15:32:03;15.70;74.10
74869;DHT22;63419;42.262;12.210;2023-04-06T15:34:31;16.30;75.00
74869;DHT22;63419;42.262;12.210;2023-04-06T15:37:16;15.20;76.10
74869;DHT22;63419;42.262;12.210;2023-04-06T15:39:45;15.30;76.60
74869;DHT22;63419;42.262;12.210;2023-04-06T15:42:12;16.10;75.20
74869;DHT22;63419;42.262;12.210;2023-04-06T15:44:40;15.30;76.30
74869;DHT22;63419;42.262;12.210;2023-04-06T15:47:13;15.30;78.50
74869;DHT22;63419;42.262;12.210;2023-04-06T15:49:40;15.40;76.00
74869;DHT22;63419;42.262;12.210;2023-04-06T15:52:11;14.50;76.30
74869;DHT22;63419;42.262;12.210;2023-04-06T15:54:59;13.60;79.20
74869;DHT22;63419;42.262;12.210;2023-04-06T15:57:30;13.00;80.40